< < Back
Terminal Aerodrome Forecast


Current Version              Previous Versions:   1  2  3  4  5  6  7  8  9  

Terminal Aerodrome Forecast

404
FTAK31 PAJN 230500
TAFAGS
TAF
PAGS 230523Z 2306/2406 VRB05KT P6SM -SHRA BKN040 OVC060
     FM231000 VRB02KT P6SM VCSH SCT040 BKN060
     FM231400 00000KT P6SM VCFG FEW005 BKN070
     FM231800 33006KT P6SM SCT080
      AMD NOT SKED=

Latest METAR

949
SAUS70 KWBC 230800 RRG
MTRAGS
METAR KAGS 230753Z AUTO 02004KT 10SM FEW020 18/17 A3007 RMK AO2 SLP182
T01830167


USA.gov is the U.S. government's official web portal to all federal, state and local government web resources and services.